createdAt,value
2018-08-09T00:00:39.754Z,100160.20
2018-08-09T00:03:08.778Z,100164.09
2018-08-09T00:05:37.724Z,100167.25
2018-08-09T00:08:06.817Z,100155.41
2018-08-09T00:10:35.825Z,100161.95
2018-08-09T00:13:04.845Z,100156.14
2018-08-09T00:15:33.812Z,100161.07
2018-08-09T00:18:02.814Z,100158.80
2018-08-09T00:20:31.820Z,100161.23
2018-08-09T00:23:00.796Z,100157.62
2018-08-09T00:25:29.884Z,100161.65
2018-08-09T00:27:58.920Z,100164.28
2018-08-09T00:30:27.888Z,100165.56
2018-08-09T00:32:56.984Z,100169.63
2018-08-09T00:35:25.997Z,100174.17
2018-08-09T00:37:54.946Z,100169.25
2018-08-09T00:40:23.953Z,100162.04
2018-08-09T00:42:53.001Z,100165.83
2018-08-09T00:45:22.008Z,100168.30
2018-08-09T00:47:51.008Z,100168.75
2018-08-09T00:50:19.990Z,100167.54
2018-08-09T00:52:49.000Z,100171.33
2018-08-09T00:55:18.025Z,100172.65
2018-08-09T00:57:47.024Z,100168.48
2018-08-09T01:00:16.093Z,100167.57
2018-08-09T01:02:45.042Z,100172.73
2018-08-09T01:05:13.985Z,100177.84
2018-08-09T01:07:43.012Z,100173.13
2018-08-09T01:10:12.052Z,100177.16
2018-08-09T01:12:41.025Z,100179.53
2018-08-09T01:15:09.975Z,100178.39
2018-08-09T01:17:39.071Z,100181.34
2018-08-09T01:20:08.285Z,100168.11
2018-08-09T01:22:37.259Z,100170.23
2018-08-09T01:25:06.231Z,100170.23
2018-08-09T01:27:35.224Z,100168.11
2018-08-09T01:30:04.203Z,100170.88
2018-08-09T01:32:33.177Z,100169.82
2018-08-09T01:35:02.205Z,100166.56
2018-08-09T01:37:31.208Z,100167.31
2018-08-09T01:40:00.198Z,100171.72
2018-08-09T01:42:40.112Z,100175.16
2018-08-09T01:45:09.189Z,100174.14
2018-08-09T01:47:38.233Z,100176.42
2018-08-09T01:50:07.240Z,100181.88
2018-08-09T01:52:36.269Z,100186.80
2018-08-09T01:55:05.232Z,100185.02
2018-08-09T01:57:34.328Z,100184.93
2018-08-09T02:00:03.271Z,100184.77
2018-08-09T02:02:32.315Z,100191.23
2018-08-09T02:05:01.360Z,100191.91
2018-08-09T02:07:30.380Z,100190.64
2018-08-09T02:09:59.413Z,100197.08
2018-08-09T02:12:28.511Z,100195.88
2018-08-09T02:14:57.545Z,100196.16
2018-08-09T02:17:26.510Z,100194.62
2018-08-09T02:19:55.609Z,100195.38
2018-08-09T02:22:24.604Z,100198.89
2018-08-09T02:24:53.570Z,100201.00
2018-08-09T02:27:22.594Z,100196.30
2018-08-09T02:29:51.620Z,100197.66
2018-08-09T02:32:20.709Z,100204.48
2018-08-09T02:34:49.793Z,100205.09
2018-08-09T02:37:18.874Z,100208.12
2018-08-09T02:39:47.889Z,100209.94
2018-08-09T02:42:16.849Z,100211.43
2018-08-09T02:44:45.886Z,100214.72
2018-08-09T02:47:14.837Z,100214.94
2018-08-09T02:49:43.808Z,100217.80
2018-08-09T02:52:12.809Z,100224.78
2018-08-09T02:54:41.909Z,100222.80
2018-08-09T02:57:10.868Z,100227.73
2018-08-09T02:59:39.938Z,100230.45
2018-08-09T03:02:08.908Z,100235.07
2018-08-09T03:04:37.920Z,100231.73
2018-08-09T03:07:07.419Z,100234.89
2018-08-09T03:09:36.451Z,100241.09
2018-08-09T03:12:05.534Z,100235.95
2018-08-09T03:14:34.488Z,100240.13
2018-08-09T03:17:03.504Z,100242.55
2018-08-09T03:19:32.511Z,100239.73
2018-08-09T03:22:01.461Z,100242.77
2018-08-09T03:24:30.518Z,100246.41
2018-08-09T03:26:59.462Z,100243.25
2018-08-09T03:29:28.541Z,100244.67
2018-08-09T03:31:57.559Z,100245.59
2018-08-09T03:34:26.531Z,100246.52
2018-08-09T03:36:55.505Z,100253.42
2018-08-09T03:39:24.464Z,100249.61
2018-08-09T03:41:53.488Z,100249.16
2018-08-09T03:44:22.452Z,100251.45
2018-08-09T03:46:51.604Z,100252.20
2018-08-09T03:49:20.614Z,100254.02
2018-08-09T03:51:49.613Z,100257.09
2018-08-09T03:54:18.612Z,100259.52
2018-08-09T03:56:47.616Z,100269.84
2018-08-09T03:59:16.560Z,100261.19
2018-08-09T04:01:45.491Z,100268.48
2018-08-09T04:04:14.491Z,100273.31
2018-08-09T04:06:43.584Z,100268.91
2018-08-09T04:09:12.949Z,100270.58
2018-08-09T04:11:42.026Z,100278.30
2018-08-09T04:14:11.500Z,100273.70
2018-08-09T04:16:40.461Z,100283.02
2018-08-09T04:19:09.391Z,100275.66
2018-08-09T04:21:38.492Z,100280.34
2018-08-09T04:24:07.711Z,100286.22
2018-08-09T04:26:36.831Z,100284.44
2018-08-09T04:29:05.796Z,100279.25
2018-08-09T04:31:34.729Z,100276.48
2018-08-09T04:34:03.849Z,100281.97
2018-08-09T04:36:32.855Z,100284.52
2018-08-09T04:39:01.932Z,100285.95
2018-08-09T04:41:30.912Z,100287.44
2018-08-09T04:44:00.020Z,100287.03
2018-08-09T04:46:28.973Z,100289.51
2018-08-09T04:48:58.894Z,100295.07
2018-08-09T04:51:27.973Z,100297.17
2018-08-09T04:53:56.992Z,100294.88
2018-08-09T04:56:26.056Z,100297.20
2018-08-09T04:58:54.976Z,100308.47
2018-08-09T05:01:24.013Z,100308.28
2018-08-09T05:03:53.064Z,100303.66
2018-08-09T05:06:21.983Z,100315.33
2018-08-09T05:08:50.927Z,100321.02
2018-08-09T05:11:19.915Z,100321.42
2018-08-09T05:13:48.919Z,100324.75
2018-08-09T05:16:17.896Z,100324.02
2018-08-09T05:18:46.904Z,100329.58
2018-08-09T05:21:15.843Z,100324.25
2018-08-09T05:23:44.771Z,100327.84
2018-08-09T05:26:13.721Z,100326.05
2018-08-09T05:28:42.718Z,100322.66
2018-08-09T05:31:11.757Z,100331.39
2018-08-09T05:33:41.056Z,100334.08
2018-08-09T05:36:10.355Z,100334.15
2018-08-09T05:38:39.731Z,100336.66
2018-08-09T05:41:08.659Z,100332.72
2018-08-09T05:43:37.599Z,100338.37
2018-08-09T05:46:06.532Z,100335.91
2018-08-09T05:48:35.515Z,100333.41
2018-08-09T05:51:04.549Z,100339.86
2018-08-09T05:53:33.536Z,100343.17
2018-08-09T05:56:02.575Z,100340.73
2018-08-09T05:58:31.553Z,100341.68
2018-08-09T06:01:00.475Z,100337.76
2018-08-09T06:03:29.398Z,100343.08
2018-08-09T06:05:58.383Z,100347.17
2018-08-09T06:08:27.416Z,100345.20
2018-08-09T06:10:56.663Z,100341.55
2018-08-09T06:13:26.078Z,100341.00
2018-08-09T06:15:55.535Z,100351.38
2018-08-09T06:18:24.978Z,100350.33
2018-08-09T06:20:54.336Z,100353.16
2018-08-09T06:23:23.647Z,100355.06
2018-08-09T06:25:52.876Z,100361.58
2018-08-09T06:28:22.075Z,100360.41
2018-08-09T06:30:51.499Z,100355.49
2018-08-09T06:33:20.999Z,100357.80
2018-08-09T06:35:50.461Z,100355.20
2018-08-09T06:38:19.449Z,100355.59
2018-08-09T06:40:48.504Z,100360.05
2018-08-09T06:43:17.511Z,100364.64
2018-08-09T06:45:46.447Z,100356.31
2018-08-09T06:48:15.400Z,100362.98
2018-08-09T06:50:44.348Z,100358.11
2018-08-09T06:53:13.312Z,100354.13
2018-08-09T06:55:42.243Z,100356.62
2018-08-09T06:58:11.308Z,100357.18
2018-08-09T07:00:40.232Z,100362.11
2018-08-09T07:03:09.227Z,100360.66
2018-08-09T07:05:38.289Z,100352.02
2018-08-09T07:08:07.229Z,100355.34
2018-08-09T07:10:36.175Z,100363.61
2018-08-09T07:13:05.156Z,100369.22
2018-08-09T07:15:34.196Z,100371.48
2018-08-09T07:18:03.336Z,100373.92
2018-08-09T07:20:32.335Z,100367.77
2018-08-09T07:23:01.325Z,100371.56
2018-08-09T07:25:30.336Z,100368.68
2018-08-09T07:27:59.332Z,100369.56
2018-08-09T07:30:28.252Z,100373.25
2018-08-09T07:32:57.242Z,100372.02
2018-08-09T07:35:26.297Z,100366.95
2018-08-09T07:37:55.363Z,100372.03
2018-08-09T07:40:24.288Z,100370.97
2018-08-09T07:42:53.268Z,100370.59
2018-08-09T07:45:22.280Z,100369.47
2018-08-09T07:47:51.215Z,100363.69
2018-08-09T07:50:20.269Z,100367.41
2018-08-09T07:52:49.393Z,100367.03
2018-08-09T07:55:18.464Z,100366.47
2018-08-09T07:57:47.456Z,100366.14
2018-08-09T08:00:16.441Z,100364.69
2018-08-09T08:02:45.439Z,100367.47
2018-08-09T08:05:14.364Z,100365.22
2018-08-09T08:07:43.417Z,100356.28
2018-08-09T08:10:12.356Z,100365.87
2018-08-09T08:12:41.552Z,100367.20
2018-08-09T08:15:11.564Z,100364.28
2018-08-09T08:17:40.981Z,100370.95
2018-08-09T08:20:10.308Z,100370.45
2018-08-09T08:22:39.405Z,100367.80
2018-08-09T08:25:08.928Z,100367.14
2018-08-09T08:27:37.911Z,100362.44
2018-08-09T08:30:10.455Z,100359.78
2018-08-09T08:32:40.053Z,100354.30
2018-08-09T08:35:09.135Z,100358.13
2018-08-09T08:37:38.504Z,100359.66
2018-08-09T08:40:08.312Z,100357.11
2018-08-09T08:42:37.933Z,100355.75
2018-08-09T08:45:09.099Z,100351.42
2018-08-09T08:47:38.312Z,100352.55
2018-08-09T08:50:07.304Z,100352.10
2018-08-09T08:52:36.272Z,100352.53
2018-08-09T08:55:07.131Z,100356.27
2018-08-09T08:57:36.268Z,100358.97
2018-08-09T09:00:07.004Z,100361.74
2018-08-09T09:02:36.200Z,100353.24
2018-08-09T09:05:06.895Z,100354.63
2018-08-09T09:07:36.184Z,100351.98
2018-08-09T09:10:05.216Z,100357.23
2018-08-09T09:12:34.159Z,100358.19
2018-08-09T09:15:03.187Z,100354.55
2018-08-09T09:17:32.164Z,100353.59
2018-08-09T09:20:01.152Z,100352.81
2018-08-09T09:22:30.107Z,100351.66
2018-08-09T09:24:59.059Z,100354.11
2018-08-09T09:27:28.004Z,100353.98
2018-08-09T09:29:56.927Z,100344.61
2018-08-09T09:32:26.012Z,100341.27
2018-08-09T09:34:55.027Z,100343.19
2018-08-09T09:37:24.104Z,100343.88
2018-08-09T09:39:53.080Z,100337.86
2018-08-09T09:42:22.088Z,100342.33
2018-08-09T09:44:51.189Z,100345.23
2018-08-09T09:47:20.253Z,100343.58
2018-08-09T09:49:49.305Z,100339.91
2018-08-09T09:52:18.404Z,100340.68
2018-08-09T09:54:47.484Z,100337.52
2018-08-09T09:57:16.485Z,100337.95
2018-08-09T09:59:45.508Z,100334.05
2018-08-09T10:02:14.559Z,100325.55
2018-08-09T10:04:43.548Z,100324.08
2018-08-09T10:07:12.741Z,100328.95
2018-08-09T10:09:41.709Z,100323.64
2018-08-09T10:12:10.826Z,100331.70
2018-08-09T10:14:39.920Z,100328.85
2018-08-09T10:17:08.855Z,100322.61
2018-08-09T10:19:37.964Z,100322.98
2018-08-09T10:22:07.408Z,100320.56
2018-08-09T10:24:36.420Z,100318.92
2018-08-09T10:27:05.376Z,100319.36
2018-08-09T10:29:34.327Z,100327.17
2018-08-09T10:32:03.348Z,100322.35
2018-08-09T10:34:32.371Z,100312.19
2018-08-09T10:37:01.384Z,100312.16
2018-08-09T10:39:30.320Z,100309.08
2018-08-09T10:41:59.512Z,100313.34
2018-08-09T10:44:28.512Z,100309.53
2018-08-09T10:46:57.507Z,100313.70
2018-08-09T10:49:26.496Z,100303.52
2018-08-09T10:51:55.651Z,100303.55
2018-08-09T10:54:24.644Z,100311.44
2018-08-09T10:56:53.699Z,100299.62
2018-08-09T10:59:22.643Z,100299.72
2018-08-09T11:01:51.664Z,100291.97
2018-08-09T11:04:20.672Z,100294.60
2018-08-09T11:06:49.668Z,100295.23
2018-08-09T11:09:18.689Z,100295.83
2018-08-09T11:11:47.716Z,100291.33
2018-08-09T11:14:16.647Z,100291.66
2018-08-09T11:16:45.597Z,100291.78
2018-08-09T11:19:14.523Z,100292.86
2018-08-09T11:21:43.532Z,100289.26
2018-08-09T11:24:12.567Z,100288.48
2018-08-09T11:26:41.526Z,100288.71
2018-08-09T11:29:10.517Z,100284.61
2018-08-09T11:31:39.638Z,100289.26
2018-08-09T11:34:08.640Z,100278.09
2018-08-09T11:36:37.712Z,100288.97
2018-08-09T11:39:10.416Z,100282.37
2018-08-09T11:41:39.339Z,100279.14
2018-08-09T11:44:08.919Z,100285.25
2018-08-09T11:46:37.885Z,100274.01
2018-08-09T11:49:06.930Z,100282.41
2018-08-09T11:51:35.952Z,100279.52
2018-08-09T11:54:04.911Z,100285.02
2018-08-09T11:56:33.939Z,100283.80
2018-08-09T11:59:02.884Z,100274.14
2018-08-09T12:01:32.173Z,100281.89
2018-08-09T12:04:01.149Z,100276.45
2018-08-09T12:06:30.208Z,100281.33
2018-08-09T12:08:59.144Z,100272.19
2018-08-09T12:11:28.135Z,100276.83
2018-08-09T12:13:57.144Z,100270.73
2018-08-09T12:16:26.268Z,100273.31
2018-08-09T12:18:55.216Z,100268.30
2018-08-09T12:21:24.299Z,100273.06
2018-08-09T12:23:53.424Z,100271.26
2018-08-09T12:26:22.421Z,100261.91
2018-08-09T12:28:51.384Z,100255.78
2018-08-09T12:31:20.352Z,100257.20
2018-08-09T12:33:49.368Z,100254.37
2018-08-09T12:36:18.343Z,100250.81
2018-08-09T12:38:47.344Z,100249.13
2018-08-09T12:41:16.347Z,100250.55
2018-08-09T12:43:45.343Z,100244.14
2018-08-09T12:46:14.396Z,100236.13
2018-08-09T12:48:43.404Z,100238.10
2018-08-09T12:51:12.402Z,100234.77
2018-08-09T12:53:41.472Z,100231.97
2018-08-09T12:56:10.452Z,100238.02
2018-08-09T12:58:39.732Z,100232.81
2018-08-09T13:01:08.663Z,100230.59
2018-08-09T13:03:37.660Z,100230.23
2018-08-09T13:06:06.668Z,100232.16
2018-08-09T13:08:35.600Z,100238.64
2018-08-09T13:11:04.661Z,100235.09
2018-08-09T13:13:33.599Z,100234.57
2018-08-09T13:16:02.611Z,100231.11
2018-08-09T13:18:31.985Z,100231.28
2018-08-09T13:21:00.920Z,100238.20
2018-08-09T13:23:29.950Z,100232.23
2018-08-09T13:25:58.903Z,100229.00
2018-08-09T13:28:27.847Z,100238.59
2018-08-09T13:30:56.842Z,100235.61
2018-08-09T13:33:25.936Z,100238.20
2018-08-09T13:35:54.879Z,100236.16
2018-08-09T13:38:23.880Z,100234.60
2018-08-09T13:40:52.926Z,100227.15
2018-08-09T13:43:21.900Z,100225.85
2018-08-09T13:45:50.888Z,100230.70
2018-08-09T13:48:19.881Z,100225.45
2018-08-09T13:50:48.933Z,100227.64
2018-08-09T13:53:17.935Z,100223.45
2018-08-09T13:55:47.012Z,100227.39
2018-08-09T13:58:16.038Z,100227.66
2018-08-09T14:00:44.980Z,100224.50
2018-08-09T14:03:14.036Z,100222.95
2018-08-09T14:05:43.024Z,100222.12
2018-08-09T14:08:12.047Z,100217.80
2018-08-09T14:10:41.047Z,100218.57
2018-08-09T14:13:10.076Z,100214.08
2018-08-09T14:15:39.084Z,100218.27
2018-08-09T14:18:08.657Z,100213.30
2018-08-09T14:20:38.278Z,100210.13
2018-08-09T14:23:08.776Z,100216.03
2018-08-09T14:25:38.375Z,100210.92
2018-08-09T14:28:08.052Z,100210.98
2018-08-09T14:30:37.767Z,100207.11
2018-08-09T14:33:07.590Z,100205.51
2018-08-09T14:35:38.052Z,100199.25
2018-08-09T14:38:08.684Z,100205.45
2018-08-09T14:40:38.227Z,100207.59
2018-08-09T14:43:07.918Z,100208.11
2018-08-09T14:45:38.499Z,100202.40
2018-08-09T14:48:08.377Z,100193.69
2018-08-09T14:50:37.983Z,100190.76
2018-08-09T14:53:07.808Z,100193.27
2018-08-09T14:55:37.415Z,100192.70
2018-08-09T14:58:08.061Z,100195.78
2018-08-09T15:00:37.651Z,100197.61
2018-08-09T15:03:07.531Z,100203.83
2018-08-09T15:05:37.630Z,100201.91
2018-08-09T15:08:07.434Z,100199.08
2018-08-09T15:10:37.104Z,100196.95
2018-08-09T15:13:06.734Z,100205.28
2018-08-09T15:15:36.368Z,100200.59
2018-08-09T15:18:05.981Z,100199.56
2018-08-09T15:20:35.510Z,100197.91
2018-08-09T15:23:05.334Z,100194.70
2018-08-09T15:25:34.323Z,100192.22
2018-08-09T15:28:03.283Z,100192.34
2018-08-09T15:30:32.349Z,100191.11
2018-08-09T15:33:01.292Z,100196.98
2018-08-09T15:35:30.827Z,100199.04
2018-08-09T15:38:00.558Z,100194.61
2018-08-09T15:40:30.113Z,100202.48
2018-08-09T15:42:59.732Z,100202.00
2018-08-09T15:45:28.901Z,100198.75
2018-08-09T15:47:57.927Z,100195.52
2018-08-09T15:50:26.880Z,100194.98
2018-08-09T15:52:55.836Z,100193.33
2018-08-09T15:55:24.826Z,100199.77
2018-08-09T15:57:53.846Z,100198.64
2018-08-09T16:00:24.192Z,100198.30
2018-08-09T16:02:53.254Z,100195.79
2018-08-09T16:05:22.274Z,100197.81
2018-08-09T16:07:51.207Z,100204.52
2018-08-09T16:10:20.215Z,100202.87
2018-08-09T16:12:49.345Z,100200.66
2018-08-09T16:15:19.628Z,100204.91
2018-08-09T16:17:49.428Z,100205.86
2018-08-09T16:20:18.424Z,100204.86
2018-08-09T16:22:47.650Z,100204.34
2018-08-09T16:25:18.076Z,100199.21
2018-08-09T16:27:48.243Z,100205.87
2018-08-09T16:30:23.280Z,100208.73
2018-08-09T16:32:52.624Z,100207.20
2018-08-09T16:35:22.751Z,100212.77
2018-08-09T16:37:51.777Z,100215.00
2018-08-09T16:40:23.404Z,100217.26
2018-08-09T16:42:52.388Z,100217.58
2018-08-09T16:45:22.500Z,100223.16
2018-08-09T16:47:52.351Z,100225.77
2018-08-09T16:50:22.795Z,100227.73
2018-08-09T16:52:52.179Z,100221.48
2018-08-09T16:55:22.479Z,100222.66
2018-08-09T16:57:51.540Z,100225.71
2018-08-09T17:00:21.894Z,100229.89
2018-08-09T17:02:51.402Z,100236.84
2018-08-09T17:05:21.524Z,100230.25
2018-08-09T17:07:51.691Z,100236.38
2018-08-09T17:10:21.767Z,100229.78
2018-08-09T17:12:51.368Z,100238.67
2018-08-09T17:15:22.085Z,100232.90
2018-08-09T17:17:51.916Z,100234.58
2018-08-09T17:20:24.649Z,100230.19
2018-08-09T17:22:53.655Z,100232.98
2018-08-09T17:25:23.559Z,100239.63
2018-08-09T17:27:52.649Z,100241.79
2018-08-09T17:30:24.130Z,100242.08
2018-08-09T17:32:53.119Z,100245.63
2018-08-09T17:35:22.239Z,100244.74
2018-08-09T17:37:52.262Z,100249.38
2018-08-09T17:40:25.999Z,100254.57
2018-08-09T17:42:57.984Z,100258.89
2018-08-09T17:45:34.608Z,100262.43
2018-08-09T17:48:04.925Z,100254.05
2018-08-09T17:50:33.947Z,100255.62
2018-08-09T17:53:04.379Z,100261.91
2018-08-09T17:55:34.183Z,100256.30
2018-08-09T17:58:03.169Z,100265.08
2018-08-09T18:00:33.371Z,100259.49
2018-08-09T18:03:02.309Z,100267.66
2018-08-09T18:05:31.256Z,100271.16
2018-08-09T18:08:00.456Z,100270.84
2018-08-09T18:10:31.733Z,100277.37
2018-08-09T18:13:00.736Z,100286.93
2018-08-09T18:15:30.501Z,100284.40
2018-08-09T18:18:00.143Z,100289.28
2018-08-09T18:20:32.689Z,100286.17
2018-08-09T18:23:01.707Z,100294.09
2018-08-09T18:25:30.639Z,100293.48
2018-08-09T18:27:59.669Z,100304.72
2018-08-09T18:30:28.595Z,100309.31
2018-08-09T18:32:57.692Z,100313.32
2018-08-09T18:35:26.720Z,100313.52
2018-08-09T18:37:57.119Z,100315.94
2018-08-09T18:40:27.636Z,100316.47
2018-08-09T18:42:58.195Z,100308.93
2018-08-09T18:45:27.171Z,100308.80
2018-08-09T18:47:58.085Z,100311.70
2018-08-09T18:50:28.294Z,100301.94
2018-08-09T18:52:57.444Z,100297.38
2018-08-09T18:55:26.456Z,100300.06
2018-08-09T18:57:55.408Z,100297.98
2018-08-09T19:00:26.257Z,100300.62
2018-08-09T19:02:55.756Z,100313.15
2018-08-09T19:05:25.219Z,100307.50
2018-08-09T19:07:54.319Z,100309.88
2018-08-09T19:10:24.853Z,100318.30
2018-08-09T19:12:53.876Z,100305.37
2018-08-09T19:15:22.893Z,100308.99
2018-08-09T19:17:52.259Z,100315.56
2018-08-09T19:20:24.283Z,100313.30
2018-08-09T19:22:53.491Z,100316.39
2018-08-09T19:25:22.550Z,100316.58
2018-08-09T19:27:51.507Z,100322.66
2018-08-09T19:30:21.999Z,100318.05
2018-08-09T19:32:51.240Z,100319.98
2018-08-09T19:35:21.027Z,100318.42
2018-08-09T19:37:50.046Z,100326.17
2018-08-09T19:40:23.000Z,100317.84
2018-08-09T19:42:51.952Z,100317.77
2018-08-09T19:45:21.251Z,100323.73
2018-08-09T19:47:50.389Z,100318.84
2018-08-09T19:50:20.913Z,100315.98
2018-08-09T19:52:49.920Z,100318.66
2018-08-09T19:55:21.306Z,100324.22
2018-08-09T19:57:50.880Z,100323.09
2018-08-09T20:00:21.627Z,100325.48
2018-08-09T20:02:50.663Z,100327.39
2018-08-09T20:05:19.831Z,100327.06
2018-08-09T20:07:48.840Z,100325.40
2018-08-09T20:10:17.848Z,100324.21
2018-08-09T20:12:47.788Z,100330.20
2018-08-09T20:15:19.269Z,100333.78
2018-08-09T20:17:48.308Z,100331.28
2018-08-09T20:20:18.668Z,100329.02
2018-08-09T20:22:47.731Z,100332.83
2018-08-09T20:25:16.891Z,100332.23
2018-08-09T20:27:46.578Z,100333.34
2018-08-09T20:30:17.473Z,100335.97
2018-08-09T20:32:47.007Z,100340.26
2018-08-09T20:35:21.979Z,100339.10
2018-08-09T20:37:51.456Z,100336.84
2018-08-09T20:40:21.472Z,100352.35
2018-08-09T20:42:51.444Z,100354.41
2018-08-09T20:45:21.744Z,100354.05
2018-08-09T20:47:50.778Z,100359.22
2018-08-09T20:50:22.416Z,100358.33
2018-08-09T20:52:51.914Z,100359.77
2018-08-09T20:55:20.932Z,100358.21
2018-08-09T20:57:50.747Z,100364.96
2018-08-09T21:00:21.676Z,100362.39
2018-08-09T21:02:51.827Z,100360.39
2018-08-09T21:05:25.432Z,100360.86
2018-08-09T21:07:55.161Z,100364.66
2018-08-09T21:10:24.535Z,100363.23
2018-08-09T21:12:53.589Z,100361.33
2018-08-09T21:15:22.672Z,100368.70
2018-08-09T21:17:51.673Z,100374.41
2018-08-09T21:20:20.688Z,100373.23
2018-08-09T21:22:50.272Z,100372.41
2018-08-09T21:25:19.409Z,100378.41
2018-08-09T21:27:48.827Z,100371.27
2018-08-09T21:30:19.201Z,100369.19
2018-08-09T21:32:48.615Z,100371.63
2018-08-09T21:35:17.571Z,100372.33
2018-08-09T21:37:46.736Z,100368.48
2018-08-09T21:40:16.056Z,100369.55
2018-08-09T21:42:45.074Z,100380.45
2018-08-09T21:45:16.752Z,100378.31
2018-08-09T21:47:45.828Z,100375.27
2018-08-09T21:50:16.808Z,100379.08
2018-08-09T21:52:45.841Z,100376.50
2018-08-09T21:55:15.083Z,100373.36
2018-08-09T21:57:45.008Z,100378.45
2018-08-09T22:00:53.971Z,100381.42
2018-08-09T22:03:25.850Z,100384.16
2018-08-09T22:05:59.876Z,100389.63
2018-08-09T22:08:33.963Z,100388.03
2018-08-09T22:11:08.342Z,100393.88
2018-08-09T22:13:42.473Z,100399.66
2018-08-09T22:16:16.621Z,100389.17
2018-08-09T22:18:50.612Z,100391.00
2018-08-09T22:21:24.634Z,100384.52
2018-08-09T22:23:53.697Z,100382.73
2018-08-09T22:26:22.744Z,100387.18
2018-08-09T22:28:51.695Z,100389.13
2018-08-09T22:31:20.696Z,100389.47
2018-08-09T22:33:49.768Z,100397.10
2018-08-09T22:36:18.856Z,100392.02
2018-08-09T22:38:47.875Z,100397.36
2018-08-09T22:41:16.917Z,100394.25
2018-08-09T22:43:45.924Z,100394.70
2018-08-09T22:46:14.860Z,100395.87
2018-08-09T22:48:43.863Z,100395.97
2018-08-09T22:51:12.811Z,100398.32
2018-08-09T22:53:41.814Z,100400.09
2018-08-09T22:56:10.743Z,100389.00
2018-08-09T22:58:39.776Z,100389.17
2018-08-09T23:01:08.726Z,100389.32
2018-08-09T23:03:37.669Z,100381.83
2018-08-09T23:06:07.104Z,100389.95
2018-08-09T23:08:36.084Z,100391.77
2018-08-09T23:11:05.159Z,100384.16
2018-08-09T23:13:34.155Z,100390.68
2018-08-09T23:16:03.089Z,100390.06
2018-08-09T23:18:32.160Z,100388.27
2018-08-09T23:21:01.197Z,100386.28
2018-08-09T23:23:30.208Z,100390.55
2018-08-09T23:25:59.137Z,100397.52
2018-08-09T23:28:28.151Z,100392.22
2018-08-09T23:30:57.135Z,100392.80
2018-08-09T23:33:26.493Z,100392.22
2018-08-09T23:35:55.581Z,100400.77
2018-08-09T23:38:24.516Z,100402.52
2018-08-09T23:40:53.544Z,100397.41
2018-08-09T23:43:22.494Z,100396.74
2018-08-09T23:45:51.568Z,100401.59
2018-08-09T23:48:20.637Z,100398.98
2018-08-09T23:50:49.628Z,100406.28
2018-08-09T23:53:18.632Z,100405.36
2018-08-09T23:55:47.559Z,100408.52
2018-08-09T23:58:16.545Z,100411.72
